Time;durP1;ratioP1;P1;durP2;ratioP2;P2;SDS_P1;SDS_P2;PMS_P1;PMS_P2;Temp;Humidity;BMP_temperature;BMP_pressure;BME280_temperature;BME280_humidity;BME280_pressure;Samples;Min_cycle;Max_cycle;Signal;HPM_P1;HPM_P2
2022/10/31 00:01:19;;;;;;;16.95;7.07;;;12.30;99.90;;;;;;5016210;28;20045;-62
2022/10/31 00:03:45;;;;;;;19.52;7.13;;;12.20;99.90;;;;;;5024390;28;20037;-60
2022/10/31 00:06:11;;;;;;;23.50;7.30;;;12.20;99.90;;;;;;5023187;28;20032;-62
2022/10/31 00:08:36;;;;;;;16.30;6.90;;;12.20;99.90;;;;;;5018887;28;20029;-63
2022/10/31 00:11:02;;;;;;;18.63;7.53;;;12.10;99.90;;;;;;5017030;28;20068;-62
2022/10/31 00:13:27;;;;;;;20.92;7.63;;;12.10;99.90;;;;;;5018276;28;20029;-62
2022/10/31 00:15:53;;;;;;;18.90;6.75;;;12.10;99.90;;;;;;5022916;28;20029;-60
2022/10/31 00:18:18;;;;;;;16.35;7.32;;;12.10;99.90;;;;;;5020814;28;20084;-62
2022/10/31 00:20:44;;;;;;;20.05;6.93;;;12.10;99.90;;;;;;5023426;28;20017;-62
2022/10/31 00:23:10;;;;;;;24.13;7.15;;;12.10;99.90;;;;;;5024345;28;20025;-61
2022/10/31 00:25:38;;;;;;;21.75;7.35;;;12.00;99.90;;;;;;5026932;28;20096;-62
2022/10/31 00:28:05;;;;;;;20.40;7.85;;;12.10;99.90;;;;;;5021209;28;20029;-62
2022/10/31 00:30:32;;;;;;;17.88;6.70;;;12.10;99.90;;;;;;5020218;28;20515;-62
2022/10/31 00:32:57;;;;;;;17.38;7.70;;;12.10;99.90;;;;;;5014462;28;20515;-60
2022/10/31 00:35:23;;;;;;;23.33;7.72;;;12.20;99.90;;;;;;5022274;28;20025;-62
2022/10/31 00:37:48;;;;;;;20.17;7.85;;;12.20;99.90;;;;;;5019785;28;20088;-61
2022/10/31 00:40:14;;;;;;;14.73;7.10;;;12.10;99.90;;;;;;5023367;28;20482;-61
2022/10/31 00:42:41;;;;;;;25.38;7.22;;;12.10;99.90;;;;;;5020179;28;20041;-60
2022/10/31 00:45:08;;;;;;;19.83;7.50;;;11.90;99.90;;;;;;5020043;28;20100;-60
2022/10/31 00:47:34;;;;;;;23.38;7.22;;;11.90;99.90;;;;;;5023087;28;20079;-61
2022/10/31 00:49:59;;;;;;;18.02;7.75;;;11.90;99.90;;;;;;5018111;28;20037;-57
2022/10/31 00:52:25;;;;;;;24.70;8.23;;;12.00;99.90;;;;;;5016645;28;20039;-56
2022/10/31 00:54:50;;;;;;;23.48;8.60;;;12.10;99.90;;;;;;5024393;28;20037;-61
2022/10/31 00:57:16;;;;;;;18.13;7.32;;;12.00;99.90;;;;;;5022504;28;20017;-60
2022/10/31 00:59:41;;;;;;;20.30;8.25;;;12.00;99.90;;;;;;5019351;28;20480;-60
2022/10/31 01:02:07;;;;;;;16.55;7.13;;;12.00;99.90;;;;;;5014627;28;20041;-59
2022/10/31 01:04:32;;;;;;;21.33;8.13;;;12.00;99.90;;;;;;5016923;28;20064;-62
2022/10/31 01:06:58;;;;;;;15.07;6.95;;;12.00;99.90;;;;;;5017313;28;20398;-61
2022/10/31 01:09:23;;;;;;;25.27;7.78;;;12.10;99.90;;;;;;5018948;28;20044;-61
2022/10/31 01:11:49;;;;;;;18.40;7.75;;;12.10;99.90;;;;;;5017015;28;20415;-60
2022/10/31 01:14:14;;;;;;;31.10;7.35;;;12.20;99.90;;;;;;5020639;28;20571;-61
2022/10/31 01:16:40;;;;;;;24.90;9.43;;;12.20;99.90;;;;;;5020777;28;20053;-61
2022/10/31 01:19:05;;;;;;;27.15;8.15;;;12.20;99.90;;;;;;5017956;28;20025;-60
2022/10/31 01:21:31;;;;;;;19.30;7.25;;;12.20;99.90;;;;;;5018723;28;20113;-59
2022/10/31 01:23:56;;;;;;;15.32;7.32;;;12.20;99.90;;;;;;5020657;28;20080;-60
2022/10/31 01:26:27;;;;;;;26.38;8.02;;;12.10;99.90;;;;;;5020329;28;20108;-60
2022/10/31 01:28:56;;;;;;;19.38;7.65;;;12.10;99.90;;;;;;5023603;28;20029;-58
2022/10/31 01:31:25;;;;;;;21.75;8.20;;;12.00;99.90;;;;;;5027484;28;20033;-60
2022/10/31 01:33:51;;;;;;;27.55;7.78;;;12.10;99.90;;;;;;5023548;28;20021;-59
2022/10/31 01:36:21;;;;;;;17.33;7.18;;;12.10;99.90;;;;;;5022891;28;20022;-59
2022/10/31 01:38:48;;;;;;;16.02;7.00;;;12.20;99.90;;;;;;5025916;28;20501;-61
2022/10/31 01:41:20;;;;;;;16.30;7.32;;;12.10;99.90;;;;;;5016356;28;20037;-61
2022/10/31 01:43:53;;;;;;;19.25;7.78;;;12.10;99.90;;;;;;5019934;28;20057;-59
2022/10/31 01:46:25;;;;;;;22.67;8.10;;;12.10;99.90;;;;;;5018811;28;20503;-60
2022/10/31 01:48:53;;;;;;;15.77;7.30;;;12.00;99.90;;;;;;5019771;28;20026;-61
2022/10/31 01:51:23;;;;;;;16.63;7.20;;;12.00;99.90;;;;;;5023088;28;20029;-61
2022/10/31 01:53:51;;;;;;;27.38;8.40;;;12.00;99.90;;;;;;5025547;28;20057;-60
2022/10/31 01:56:17;;;;;;;24.27;7.95;;;11.90;99.90;;;;;;5021118;28;20033;-60
2022/10/31 01:58:45;;;;;;;20.42;7.00;;;11.90;99.90;;;;;;5024345;28;20496;-60
2022/10/31 02:01:13;;;;;;;14.45;7.15;;;11.80;99.90;;;;;;5022467;28;20029;-60
2022/10/31 02:03:39;;;;;;;28.83;9.07;;;11.70;99.90;;;;;;5027225;28;20040;-60
2022/10/31 02:06:10;;;;;;;30.25;9.45;;;11.70;99.90;;;;;;5026185;28;20017;-61
2022/10/31 02:08:38;;;;;;;20.58;8.68;;;11.60;99.90;;;;;;5023225;28;20030;-60
2022/10/31 02:11:05;;;;;;;18.75;7.82;;;11.70;99.90;;;;;;5023680;28;20550;-60
2022/10/31 02:13:31;;;;;;;18.10;8.25;;;11.80;99.90;;;;;;5027922;28;20030;-61
2022/10/31 02:15:58;;;;;;;31.80;9.60;;;11.80;99.90;;;;;;5026307;28;20025;-61
2022/10/31 02:18:29;;;;;;;30.17;8.93;;;11.70;99.90;;;;;;5024169;28;20033;-61
2022/10/31 02:21:06;;;;;;;27.48;8.52;;;11.60;99.90;;;;;;5025100;28;20021;-60
2022/10/31 02:23:59;;;;;;;30.92;7.97;;;11.50;99.90;;;;;;5023911;28;20568;-60
2022/10/31 02:27:00;;;;;;;28.25;8.27;;;11.50;99.90;;;;;;5022730;28;20056;-59
2022/10/31 02:29:38;;;;;;;21.70;8.65;;;11.40;99.90;;;;;;5025455;28;20029;-62
2022/10/31 02:32:28;;;;;;;26.90;9.32;;;11.40;99.90;;;;;;5022935;28;20042;-60
2022/10/31 02:35:27;;;;;;;18.92;8.80;;;11.40;99.90;;;;;;5028587;28;20028;-61
2022/10/31 02:38:02;;;;;;;20.95;8.05;;;11.40;99.90;;;;;;5026146;28;20112;-60
2022/10/31 02:40:43;;;;;;;14.52;7.47;;;11.40;99.90;;;;;;5022521;28;20056;-60
2022/10/31 02:43:15;;;;;;;23.08;8.73;;;11.50;99.90;;;;;;5024584;28;20100;-60
2022/10/31 02:45:54;;;;;;;18.98;8.25;;;11.50;99.90;;;;;;5022626;28;20025;-60
2022/10/31 02:48:25;;;;;;;23.70;9.20;;;11.40;99.90;;;;;;5017358;28;20061;-60
2022/10/31 02:51:11;;;;;;;24.92;8.05;;;11.40;99.90;;;;;;5024982;28;20060;-60
2022/10/31 02:53:37;;;;;;;19.17;8.65;;;11.40;99.90;;;;;;5020938;28;20018;-60
2022/10/31 02:56:08;;;;;;;22.88;8.60;;;11.40;99.90;;;;;;5006670;28;20021;-60
2022/10/31 02:58:38;;;;;;;22.10;8.30;;;11.30;99.90;;;;;;5024266;28;21624;-60
2022/10/31 03:01:26;;;;;;;27.13;8.35;;;11.40;99.90;;;;;;5017355;28;20037;-61
2022/10/31 03:04:14;;;;;;;18.52;7.63;;;11.40;99.90;;;;;;5021405;28;20026;-61
2022/10/31 03:06:54;;;;;;;20.17;7.53;;;11.50;99.90;;;;;;5007494;28;20048;-61
2022/10/31 03:09:30;;;;;;;28.23;8.68;;;11.50;99.90;;;;;;5022470;28;20499;-61
2022/10/31 03:12:12;;;;;;;25.88;8.70;;;11.50;99.90;;;;;;5019621;28;20021;-60
2022/10/31 03:14:53;;;;;;;26.77;8.70;;;11.40;99.90;;;;;;5013725;28;20040;-62
2022/10/31 03:17:54;;;;;;;27.70;8.63;;;11.40;99.90;;;;;;5018509;28;20116;-61
2022/10/31 03:20:26;;;;;;;28.30;8.15;;;11.30;99.90;;;;;;5016738;28;20033;-61
2022/10/31 03:22:54;;;;;;;28.80;9.45;;;11.20;99.90;;;;;;5018458;28;20039;-60
2022/10/31 03:25:19;;;;;;;22.75;8.43;;;11.30;99.90;;;;;;5016609;28;20060;-62
2022/10/31 03:27:47;;;;;;;17.85;7.55;;;11.40;99.90;;;;;;5019521;28;20482;-63
2022/10/31 03:30:13;;;;;;;18.45;8.23;;;11.50;99.90;;;;;;5016655;28;20515;-58
2022/10/31 03:32:48;;;;;;;17.30;8.30;;;11.50;99.90;;;;;;5017950;28;20033;-64
2022/10/31 03:35:18;;;;;;;19.38;8.07;;;11.50;99.90;;;;;;5020161;28;20057;-59
2022/10/31 03:37:44;;;;;;;22.30;9.55;;;11.60;99.90;;;;;;5022626;28;20399;-61
2022/10/31 03:40:14;;;;;;;19.90;8.50;;;11.60;99.90;;;;;;5022166;28;20041;-62
2022/10/31 03:42:43;;;;;;;28.92;8.93;;;11.70;99.90;;;;;;5017834;28;20032;-62
2022/10/31 03:45:24;;;;;;;29.60;8.82;;;11.70;99.90;;;;;;5018485;28;20842;-62
2022/10/31 03:47:51;;;;;;;19.15;8.60;;;11.70;99.90;;;;;;5014481;28;20041;-62
2022/10/31 03:50:17;;;;;;;19.23;8.75;;;11.70;99.90;;;;;;5024354;28;20029;-60
2022/10/31 03:53:35;;;;;;;20.33;7.50;;;11.60;99.90;;;;;;5017345;28;20048;-61
2022/10/31 03:56:12;;;;;;;22.27;8.23;;;11.60;99.90;;;;;;4998702;28;20041;-61
2022/10/31 03:58:48;;;;;;;17.83;7.95;;;11.50;99.90;;;;;;5015375;28;20116;-63
2022/10/31 04:01:18;;;;;;;22.40;8.77;;;11.50;99.90;;;;;;5016476;28;20184;-62
2022/10/31 04:03:45;;;;;;;24.27;8.50;;;11.50;99.90;;;;;;5015159;28;20034;-63
2022/10/31 04:06:14;;;;;;;17.50;8.02;;;11.60;99.90;;;;;;5001589;28;20865;-61
2022/10/31 04:08:45;;;;;;;26.58;7.68;;;11.50;99.90;;;;;;5019917;28;20037;-62
2022/10/31 04:11:13;;;;;;;22.17;8.40;;;11.50;99.90;;;;;;5016566;28;20100;-62
2022/10/31 04:13:40;;;;;;;25.88;8.65;;;11.60;99.90;;;;;;5019863;28;20029;-61
2022/10/31 04:16:06;;;;;;;19.05;9.25;;;11.70;99.90;;;;;;5016836;28;20491;-62
2022/10/31 04:18:32;;;;;;;22.98;9.13;;;11.80;99.90;;;;;;5016819;28;20033;-63
2022/10/31 04:21:03;;;;;;;16.83;7.60;;;11.80;99.90;;;;;;5020374;28;20022;-60
2022/10/31 04:23:29;;;;;;;17.77;8.48;;;11.80;99.90;;;;;;5015927;28;20026;-63
2022/10/31 04:25:55;;;;;;;26.58;8.73;;;11.90;99.90;;;;;;5014922;28;20049;-60
2022/10/31 04:28:20;;;;;;;23.45;9.73;;;11.90;99.90;;;;;;5022181;28;20531;-62
2022/10/31 04:30:46;;;;;;;28.60;8.75;;;11.90;99.90;;;;;;5021317;28;20037;-62
2022/10/31 04:33:11;;;;;;;22.55;8.55;;;11.90;99.90;;;;;;5022233;28;20498;-63
2022/10/31 04:35:37;;;;;;;25.55;8.05;;;11.90;99.90;;;;;;5018385;28;20029;-60
2022/10/31 04:38:03;;;;;;;17.73;8.18;;;11.90;99.90;;;;;;5015731;28;20026;-63
2022/10/31 04:40:28;;;;;;;28.90;9.40;;;11.80;99.90;;;;;;5018264;28;20711;-62
2022/10/31 04:42:54;;;;;;;24.20;9.13;;;11.70;99.90;;;;;;5016916;28;20114;-62
2022/10/31 04:45:19;;;;;;;25.90;9.52;;;11.70;99.90;;;;;;5014161;28;20036;-60
2022/10/31 04:47:45;;;;;;;29.17;9.95;;;11.60;99.90;;;;;;5019214;28;20021;-60
2022/10/31 04:50:10;;;;;;;23.38;9.15;;;11.60;99.90;;;;;;5018856;28;20036;-59
2022/10/31 04:52:40;;;;;;;20.52;9.43;;;11.50;99.90;;;;;;5027624;28;20084;-61
2022/10/31 04:55:06;;;;;;;24.27;10.23;;;11.50;99.90;;;;;;5028138;28;20033;-62
2022/10/31 04:57:31;;;;;;;19.25;8.77;;;11.50;99.90;;;;;;5026855;28;20032;-63
2022/10/31 04:59:57;;;;;;;18.23;9.65;;;11.50;99.90;;;;;;5029542;28;20172;-60
2022/10/31 05:02:22;;;;;;;26.15;8.98;;;11.50;99.90;;;;;;5025130;28;20017;-63
2022/10/31 05:04:48;;;;;;;23.40;9.40;;;11.60;99.90;;;;;;5031353;28;20487;-63
2022/10/31 05:07:13;;;;;;;27.88;9.32;;;11.60;99.90;;;;;;5023435;28;20025;-61
2022/10/31 05:09:39;;;;;;;20.35;9.10;;;11.50;99.90;;;;;;5020062;28;20056;-62
2022/10/31 05:12:04;;;;;;;19.88;8.63;;;11.50;99.90;;;;;;5020991;28;20116;-62
2022/10/31 05:14:30;;;;;;;20.58;8.63;;;11.50;99.90;;;;;;5018318;28;20036;-62
2022/10/31 05:16:55;;;;;;;22.38;8.68;;;11.50;99.90;;;;;;5028445;28;20030;-61
2022/10/31 05:19:21;;;;;;;18.23;9.10;;;11.50;99.90;;;;;;5020400;28;20033;-62
2022/10/31 05:21:46;;;;;;;25.63;8.50;;;11.40;99.90;;;;;;5020518;28;20037;-61
2022/10/31 05:24:12;;;;;;;25.00;8.75;;;11.40;99.90;;;;;;5020578;28;20488;-62
2022/10/31 05:26:37;;;;;;;15.70;7.72;;;11.40;99.90;;;;;;5020355;28;20038;-62
2022/10/31 05:29:03;;;;;;;17.38;9.20;;;11.40;99.90;;;;;;5017911;28;20026;-61
2022/10/31 05:31:28;;;;;;;17.17;8.52;;;11.40;99.90;;;;;;5018816;28;20075;-61
2022/10/31 05:33:54;;;;;;;25.95;9.52;;;11.30;99.90;;;;;;5020600;28;20025;-64
2022/10/31 05:36:19;;;;;;;24.25;9.05;;;11.30;99.90;;;;;;5019360;28;20549;-62
2022/10/31 05:38:45;;;;;;;28.73;9.18;;;11.20;99.90;;;;;;5020806;28;20517;-63
2022/10/31 05:41:10;;;;;;;24.55;9.27;;;11.10;99.90;;;;;;5003509;28;20091;-63
2022/10/31 05:43:36;;;;;;;33.38;8.95;;;11.20;99.90;;;;;;5018474;28;20118;-60
2022/10/31 05:46:02;;;;;;;21.75;8.98;;;11.10;99.90;;;;;;5024343;28;20025;-62
2022/10/31 05:48:27;;;;;;;25.92;10.13;;;11.20;99.90;;;;;;5018102;28;20030;-63
2022/10/31 05:50:53;;;;;;;21.80;8.80;;;11.20;99.90;;;;;;5014892;28;20488;-61
2022/10/31 05:53:19;;;;;;;18.15;7.90;;;11.20;99.90;;;;;;5014382;28;20021;-63
2022/10/31 05:55:44;;;;;;;23.02;8.50;;;11.20;99.90;;;;;;4995056;28;20129;-63
2022/10/31 05:58:10;;;;;;;25.70;9.40;;;11.10;99.90;;;;;;5017456;28;20058;-62
2022/10/31 06:00:36;;;;;;;22.40;8.82;;;11.00;99.90;;;;;;5017512;28;20053;-59
2022/10/31 06:03:07;;;;;;;22.90;9.63;;;10.90;99.90;;;;;;5026153;28;20487;-62
2022/10/31 06:05:33;;;;;;;23.67;9.73;;;10.90;99.90;;;;;;5023394;28;20029;-60
2022/10/31 06:07:59;;;;;;;25.27;8.60;;;10.90;99.90;;;;;;5026142;28;20021;-61
2022/10/31 06:10:25;;;;;;;24.42;9.73;;;10.90;99.90;;;;;;5022185;28;20155;-62
2022/10/31 06:12:51;;;;;;;21.70;8.68;;;10.90;99.90;;;;;;5015593;28;20060;-61
2022/10/31 06:15:17;;;;;;;18.15;9.25;;;11.00;99.90;;;;;;5023200;28;20107;-62
2022/10/31 06:17:42;;;;;;;20.92;8.80;;;11.00;99.90;;;;;;5023939;28;20103;-60
2022/10/31 06:20:08;;;;;;;20.77;8.52;;;11.00;99.90;;;;;;5020190;28;20058;-62
2022/10/31 06:22:34;;;;;;;25.30;8.88;;;11.00;99.90;;;;;;5025370;28;20036;-60
2022/10/31 06:24:59;;;;;;;24.00;8.35;;;11.00;99.90;;;;;;5027287;28;20040;-62
2022/10/31 06:27:25;;;;;;;22.60;8.88;;;11.00;99.90;;;;;;5027648;28;20024;-60
2022/10/31 06:29:51;;;;;;;26.05;9.93;;;11.00;99.90;;;;;;5020759;28;20036;-61
2022/10/31 06:32:17;;;;;;;24.33;8.45;;;11.10;99.90;;;;;;5023220;28;20033;-61
2022/10/31 06:34:43;;;;;;;16.92;8.93;;;11.10;99.90;;;;;;5020915;28;20447;-59
2022/10/31 06:37:11;;;;;;;18.92;8.13;;;11.10;99.90;;;;;;5021780;28;20026;-61
2022/10/31 06:39:36;;;;;;;18.02;7.50;;;11.10;99.90;;;;;;5018405;28;20038;-55
2022/10/31 06:42:03;;;;;;;26.63;9.50;;;11.10;99.90;;;;;;5019106;28;20032;-54
2022/10/31 06:44:29;;;;;;;23.25;7.68;;;11.10;99.90;;;;;;5022462;28;20501;-53
2022/10/31 06:46:55;;;;;;;21.67;8.93;;;11.10;99.90;;;;;;5004354;28;20032;-54
2022/10/31 06:49:20;;;;;;;20.50;9.07;;;11.10;99.90;;;;;;5006000;28;20052;-54
2022/10/31 06:51:49;;;;;;;16.75;8.63;;;11.10;99.90;;;;;;5020172;28;20043;-55
2022/10/31 06:54:15;;;;;;;25.55;8.90;;;11.10;99.90;;;;;;5025707;28;20048;-55
2022/10/31 06:56:41;;;;;;;23.70;9.85;;;11.20;99.90;;;;;;5022161;28;20029;-53
2022/10/31 06:59:07;;;;;;;29.33;9.20;;;11.20;99.90;;;;;;5017275;28;20037;-52
2022/10/31 07:01:33;;;;;;;16.63;8.52;;;11.20;99.90;;;;;;5022756;28;20127;-53
2022/10/31 07:03:58;;;;;;;21.42;9.00;;;11.20;99.90;;;;;;5025502;28;20034;-52
2022/10/31 07:06:24;;;;;;;22.02;8.27;;;11.30;99.90;;;;;;5022386;28;20083;-50
2022/10/31 07:08:50;;;;;;;23.95;8.20;;;11.30;99.90;;;;;;5016661;28;20033;-51
2022/10/31 07:11:15;;;;;;;19.88;8.18;;;11.40;99.90;;;;;;5023650;28;20052;-52
2022/10/31 07:13:41;;;;;;;25.25;9.52;;;11.40;99.90;;;;;;5022217;28;20053;-54
2022/10/31 07:16:07;;;;;;;19.67;9.32;;;11.50;99.90;;;;;;5020291;28;20377;-52
2022/10/31 07:18:33;;;;;;;20.92;8.73;;;11.50;99.90;;;;;;5027457;28;20067;-51
2022/10/31 07:20:59;;;;;;;21.92;8.95;;;11.60;99.90;;;;;;5027549;28;20037;-52
2022/10/31 07:23:24;;;;;;;33.88;8.80;;;11.60;99.90;;;;;;5026620;28;20258;-53
2022/10/31 07:25:56;;;;;;;18.30;9.73;;;11.60;99.90;;;;;;5028228;28;20060;-56
2022/10/31 07:28:21;;;;;;;28.83;9.00;;;11.60;99.90;;;;;;5024275;28;20025;-51
2022/10/31 07:30:52;;;;;;;26.10;8.55;;;11.60;99.90;;;;;;5027286;28;20510;-51
2022/10/31 07:33:17;;;;;;;27.52;10.13;;;11.60;99.90;;;;;;5024200;28;20025;-52
2022/10/31 07:35:43;;;;;;;20.02;9.77;;;11.60;99.90;;;;;;5022020;28;20033;-54
2022/10/31 07:38:10;;;;;;;22.00;9.23;;;11.60;99.90;;;;;;5024710;28;20043;-51
2022/10/31 07:40:36;;;;;;;24.00;8.48;;;11.70;99.90;;;;;;5022222;28;20025;-53
2022/10/31 07:43:01;;;;;;;19.45;8.25;;;11.80;99.90;;;;;;5017316;28;20017;-52
2022/10/31 07:45:27;;;;;;;19.15;9.15;;;11.80;99.90;;;;;;5020347;28;20144;-53
2022/10/31 07:47:53;;;;;;;23.25;9.27;;;11.90;99.90;;;;;;5017688;28;20025;-51
2022/10/31 07:50:24;;;;;;;19.00;8.60;;;11.80;99.90;;;;;;5023988;28;20392;-52
2022/10/31 07:53:02;;;;;;;23.85;9.13;;;11.90;99.90;;;;;;5020137;28;20628;-54
2022/10/31 07:55:28;;;;;;;21.52;9.20;;;11.90;99.90;;;;;;5022896;28;20124;-51
2022/10/31 07:58:02;;;;;;;18.00;8.05;;;12.00;99.90;;;;;;5025849;28;20028;-52
2022/10/31 08:00:28;;;;;;;19.90;7.70;;;12.00;99.90;;;;;;5027681;28;20021;-53
2022/10/31 08:03:01;;;;;;;16.65;8.07;;;12.10;99.90;;;;;;5027891;28;20113;-51
2022/10/31 08:05:28;;;;;;;18.75;8.00;;;12.10;99.90;;;;;;5025806;28;20018;-55
2022/10/31 08:07:53;;;;;;;28.15;12.00;;;12.20;99.90;;;;;;5017140;28;20108;-52
2022/10/31 08:10:20;;;;;;;24.17;9.00;;;12.20;99.90;;;;;;5023868;28;20113;-52
2022/10/31 08:12:45;;;;;;;32.13;9.80;;;12.20;99.90;;;;;;5023896;28;20715;-52
2022/10/31 08:15:11;;;;;;;24.88;8.98;;;12.10;99.90;;;;;;5027429;28;20045;-55
2022/10/31 08:17:37;;;;;;;20.75;8.57;;;12.20;99.90;;;;;;5027032;28;20564;-55
2022/10/31 08:20:04;;;;;;;31.25;9.65;;;12.20;99.90;;;;;;5021444;28;20068;-52
2022/10/31 08:22:30;;;;;;;25.70;9.43;;;12.20;99.90;;;;;;5017119;28;20241;-52
2022/10/31 08:24:55;;;;;;;23.20;9.77;;;12.30;99.90;;;;;;5020062;28;20049;-52
2022/10/31 08:27:21;;;;;;;27.27;9.35;;;12.30;99.90;;;;;;5016459;28;20037;-51
2022/10/31 08:29:46;;;;;;;22.38;9.98;;;12.40;99.90;;;;;;5021333;28;20046;-53
2022/10/31 08:32:12;;;;;;;20.50;8.80;;;12.40;99.90;;;;;;5021400;28;20130;-54
2022/10/31 08:34:38;;;;;;;23.67;8.98;;;12.50;99.90;;;;;;5022922;28;20038;-53
2022/10/31 08:37:03;;;;;;;21.15;8.95;;;12.50;99.90;;;;;;5028329;28;20033;-52
2022/10/31 08:39:29;;;;;;;21.33;9.43;;;12.60;99.90;;;;;;5017448;28;20033;-51
2022/10/31 08:41:54;;;;;;;20.55;9.05;;;12.70;99.90;;;;;;5021381;28;20495;-54
2022/10/31 08:44:20;;;;;;;27.50;10.35;;;12.70;99.90;;;;;;5017536;28;20034;-51
2022/10/31 08:46:45;;;;;;;28.67;9.52;;;12.70;99.90;;;;;;5018621;28;20041;-52
2022/10/31 08:49:11;;;;;;;19.98;8.27;;;12.80;99.90;;;;;;5019246;28;20064;-51
2022/10/31 08:51:36;;;;;;;19.88;9.18;;;12.80;99.90;;;;;;5016772;28;20131;-53
2022/10/31 08:54:02;;;;;;;22.10;9.20;;;12.80;99.90;;;;;;5016352;28;20475;-55
2022/10/31 08:56:27;;;;;;;22.15;8.85;;;13.00;99.90;;;;;;5023502;28;20053;-54
2022/10/31 08:58:53;;;;;;;27.30;8.75;;;13.10;99.90;;;;;;5001054;28;20046;-55
2022/10/31 09:01:19;;;;;;;24.48;8.90;;;13.10;99.90;;;;;;5020884;28;20029;-57
2022/10/31 09:03:44;;;;;;;23.75;9.43;;;13.30;99.90;;;;;;5016839;28;20024;-55
2022/10/31 09:06:10;;;;;;;28.80;9.55;;;13.30;99.90;;;;;;5019611;28;20384;-55
2022/10/31 09:08:36;;;;;;;21.23;8.57;;;13.40;99.90;;;;;;5018749;28;20040;-54
2022/10/31 09:11:03;;;;;;;20.88;8.75;;;13.50;99.90;;;;;;5023958;28;20040;-56
2022/10/31 09:13:28;;;;;;;27.17;8.60;;;13.60;99.90;;;;;;5024529;28;20464;-54
2022/10/31 09:15:56;;;;;;;17.58;7.55;;;13.60;99.90;;;;;;5017426;28;20033;-56
2022/10/31 09:18:22;;;;;;;15.90;7.70;;;13.70;99.90;;;;;;5019670;28;20033;-55
2022/10/31 09:20:49;;;;;;;29.85;7.93;;;13.70;99.90;;;;;;5025554;28;20483;-55
2022/10/31 09:23:17;;;;;;;19.35;8.27;;;13.70;99.90;;;;;;5023173;28;20045;-55
2022/10/31 09:25:44;;;;;;;14.10;7.10;;;13.80;99.90;;;;;;5039516;22;20029;-58
2022/10/31 09:28:12;;;;;;;23.00;8.18;;;13.90;99.90;;;;;;5010015;28;20050;-59
2022/10/31 09:30:38;;;;;;;17.08;7.85;;;13.90;99.90;;;;;;5002012;28;20046;-58
2022/10/31 09:33:07;;;;;;;17.98;7.43;;;14.00;99.90;;;;;;5008898;28;20034;-59
2022/10/31 09:35:33;;;;;;;16.25;7.70;;;14.00;99.90;;;;;;5010055;28;20049;-58
2022/10/31 09:38:09;;;;;;;22.55;7.00;;;14.10;99.90;;;;;;4993591;28;20038;-58
2022/10/31 09:40:40;;;;;;;19.35;7.75;;;14.20;99.90;;;;;;4997385;28;20157;-59
2022/10/31 09:43:30;;;;;;;16.83;7.75;;;14.30;99.90;;;;;;4990196;28;20027;-58
2022/10/31 09:45:56;;;;;;;19.98;7.30;;;14.40;99.90;;;;;;4988686;28;20067;-60
2022/10/31 09:48:49;;;;;;;18.23;7.30;;;14.50;99.90;;;;;;4996113;28;20026;-59
2022/10/31 09:51:43;;;;;;;20.98;7.75;;;14.70;99.90;;;;;;4987085;28;20084;-60
2022/10/31 09:54:21;;;;;;;15.45;7.50;;;14.90;99.90;;;;;;4985430;28;20046;-59
2022/10/31 09:56:47;;;;;;;18.65;7.38;;;15.00;99.90;;;;;;4995058;28;20038;-61
2022/10/31 09:59:25;;;;;;;22.63;7.38;;;15.20;99.90;;;;;;4993784;28;20030;-59
2022/10/31 10:01:59;;;;;;;24.20;7.68;;;15.20;99.90;;;;;;4995754;28;20445;-59
2022/10/31 10:05:05;;;;;;;21.45;7.70;;;15.20;99.90;;;;;;4999257;28;20030;-59
2022/10/31 10:07:54;;;;;;;15.82;7.82;;;15.30;99.90;;;;;;4917791;29;20078;-60
2022/10/31 10:10:26;;;;;;;18.20;7.75;;;15.40;99.90;;;;;;4908472;29;20032;-60
2022/10/31 10:13:06;;;;;;;20.42;7.13;;;15.50;99.90;;;;;;4969435;28;20517;-59
2022/10/31 10:15:47;;;;;;;16.13;6.85;;;15.70;99.90;;;;;;4997884;28;20121;-60
2022/10/31 10:18:23;;;;;;;13.20;6.78;;;15.90;99.90;;;;;;5000155;28;20025;-59
2022/10/31 10:21:16;;;;;;;24.67;6.35;;;16.10;99.90;;;;;;4996539;28;20113;-59
2022/10/31 10:24:04;;;;;;;13.95;6.65;;;16.20;99.90;;;;;;4989445;28;20376;-58
2022/10/31 10:26:42;;;;;;;18.45;6.05;;;16.30;99.90;;;;;;4992039;28;20038;-60
2022/10/31 10:29:16;;;;;;;12.10;6.30;;;16.50;99.90;;;;;;4995797;28;20093;-58
2022/10/31 10:31:45;;;;;;;;;;;16.60;99.90;;;;;;4990594;28;20041;-61
2022/10/31 10:34:29;;;;;;;15.75;6.28;;;16.60;99.90;;;;;;5002000;28;19925;-60
2022/10/31 10:37:01;;;;;;;17.88;6.20;;;16.60;99.90;;;;;;4993999;28;20129;-60
2022/10/31 10:39:40;;;;;;;12.38;6.07;;;16.80;99.90;;;;;;4997171;28;20081;-58
2022/10/31 10:47:54;;;;;;;15.30;6.10;;;16.70;99.90;;;;;;4988154;28;20041;-58
2022/10/31 10:50:27;;;;;;;19.10;6.22;;;16.60;99.90;;;;;;4988897;28;20030;-58
2022/10/31 10:53:31;;;;;;;15.13;6.88;;;16.60;99.90;;;;;;4994852;28;20137;-61
2022/10/31 10:56:19;;;;;;;18.75;7.15;;;16.60;99.90;;;;;;4998620;28;20048;-59
2022/10/31 10:58:45;;;;;;;23.63;6.88;;;16.70;99.90;;;;;;4991356;28;20041;-60
2022/10/31 11:01:14;;;;;;;18.70;6.75;;;16.70;99.90;;;;;;4992438;28;20052;-58
2022/10/31 11:03:41;;;;;;;20.45;6.88;;;16.70;99.90;;;;;;4990542;28;20022;-59
2022/10/31 11:06:20;;;;;;;16.52;6.30;;;16.70;99.90;;;;;;4998042;28;20435;-60
2022/10/31 11:08:46;;;;;;;15.45;5.78;;;16.80;99.90;;;;;;4989682;28;20100;-60
2022/10/31 11:11:17;;;;;;;18.02;6.50;;;17.00;99.90;;;;;;4989238;28;20484;-59
2022/10/31 11:13:46;;;;;;;16.08;5.93;;;17.10;99.90;;;;;;4995942;28;20030;-62
2022/10/31 11:16:27;;;;;;;16.45;5.68;;;17.30;99.90;;;;;;4995193;28;20129;-60
2022/10/31 11:18:53;;;;;;;24.20;6.88;;;17.50;99.90;;;;;;4991994;28;20041;-60
2022/10/31 11:21:22;;;;;;;14.02;5.78;;;17.50;99.90;;;;;;5001473;28;20034;-57
2022/10/31 11:23:47;;;;;;;12.93;5.65;;;17.60;99.90;;;;;;4992500;28;20041;-60
2022/10/31 11:26:20;;;;;;;13.57;5.80;;;17.60;99.90;;;;;;4993028;28;20038;-60
2022/10/31 11:28:57;;;;;;;10.98;5.47;;;17.60;99.90;;;;;;4986709;28;20492;-60
2022/10/31 11:31:24;;;;;;;16.77;4.97;;;17.50;99.90;;;;;;4985731;28;20031;-60
2022/10/31 11:33:58;;;;;;;16.30;5.82;;;17.50;99.90;;;;;;4991384;28;20023;-59
2022/10/31 11:36:31;;;;;;;17.52;5.93;;;17.40;99.90;;;;;;4994772;28;20073;-60
2022/10/31 11:38:59;;;;;;;14.65;5.45;;;17.40;99.90;;;;;;4991460;28;20057;-58
2022/10/31 11:41:31;;;;;;;14.15;6.50;;;17.40;99.90;;;;;;4998992;28;20037;-60
2022/10/31 11:44:04;;;;;;;21.95;5.88;;;17.50;99.90;;;;;;4992725;28;20076;-59
2022/10/31 11:46:37;;;;;;;11.10;5.90;;;17.60;99.90;;;;;;4989784;28;20038;-57
2022/10/31 11:49:05;;;;;;;22.85;5.93;;;17.70;99.90;;;;;;4993289;28;20100;-59
2022/10/31 11:51:33;;;;;;;18.23;5.80;;;17.60;99.90;;;;;;4988281;28;20034;-59
2022/10/31 11:54:02;;;;;;;16.40;5.20;;;17.60;99.90;;;;;;4985047;28;20042;-58
2022/10/31 11:56:37;;;;;;;11.70;5.82;;;17.70;99.90;;;;;;4986990;28;20033;-59
2022/10/31 11:59:05;;;;;;;19.50;5.47;;;17.90;99.90;;;;;;4996207;28;20480;-57
2022/10/31 12:01:32;;;;;;;17.90;6.15;;;18.00;99.90;;;;;;4991190;28;20025;-57
2022/10/31 12:04:09;;;;;;;16.02;4.80;;;18.10;99.90;;;;;;4999436;28;20416;-56
2022/10/31 12:06:43;;;;;;;21.40;5.57;;;18.20;99.90;;;;;;4991435;28;20017;-58
2022/10/31 12:09:28;;;;;;;18.90;5.38;;;18.10;99.90;;;;;;4994401;28;20032;-58
2022/10/31 12:12:05;;;;;;;20.15;5.28;;;18.20;99.90;;;;;;4990930;28;20054;-60
2022/10/31 12:14:36;;;;;;;8.63;4.93;;;18.30;99.90;;;;;;4996354;28;20416;-56
2022/10/31 12:17:17;;;;;;;25.23;5.18;;;18.40;99.90;;;;;;4985248;28;20034;-59
2022/10/31 12:20:04;;;;;;;12.80;6.00;;;18.50;99.90;;;;;;4987607;28;20662;-60
2022/10/31 12:22:41;;;;;;;17.15;5.70;;;18.60;99.90;;;;;;4985706;28;20026;-60
2022/10/31 12:25:42;;;;;;;17.27;6.18;;;18.40;99.90;;;;;;4980718;28;20396;-56
2022/10/31 12:28:19;;;;;;;16.63;5.18;;;18.30;99.90;;;;;;4990149;28;20026;-59
2022/10/31 12:30:54;;;;;;;18.33;5.30;;;18.30;99.90;;;;;;4986102;28;20061;-60
2022/10/31 12:33:25;;;;;;;;;;;18.40;99.90;;;;;;4990691;28;20033;-59
2022/10/31 12:36:19;;;;;;;15.98;4.40;;;18.60;99.90;;;;;;4984373;28;19941;-60
2022/10/31 12:39:00;;;;;;;17.70;4.83;;;18.50;99.90;;;;;;4988081;28;20038;-57
2022/10/31 12:41:39;;;;;;;13.48;6.07;;;18.50;99.90;;;;;;4986902;28;20942;-57
2022/10/31 12:44:30;;;;;;;15.02;4.93;;;18.50;99.90;;;;;;4985936;28;20028;-60
2022/10/31 12:47:15;;;;;;;13.50;4.60;;;18.50;99.90;;;;;;4980617;28;20544;-60
2022/10/31 12:49:57;;;;;;;15.65;4.78;;;18.30;99.90;;;;;;4988154;28;20051;-59
2022/10/31 12:52:41;;;;;;;13.70;4.93;;;18.40;99.90;;;;;;4987175;28;20432;-60
2022/10/31 12:55:07;;;;;;;19.60;5.80;;;18.40;99.90;;;;;;4989525;28;20089;-60
2022/10/31 12:57:38;;;;;;;14.45;4.95;;;18.30;99.90;;;;;;4997283;28;20041;-60
2022/10/31 13:00:18;;;;;;;11.07;4.57;;;18.20;99.90;;;;;;4992559;28;20058;-60